KAUO/AUO METAR and TAF weather

Enter ICAO airport designator
Station Type Date Time Source
KAUO METAR 2023/01/30 09:53 UTC NOAA

KAUO 300953Z AUTO 11005KT 8SM -RA BKN004 BKN027 OVC095 12/12 A3012 RMK AO2 CIG 002V012 SLP017 P0007 T01170117


Station Type Date Time Source
KAUO Decoded METAR 2023/01/30 09:53 UTC NOAA

Auburn-Opelika Airport, AL, United States (KAUO) 32-37N 085-26W
Jan 30, 2023 - 04:53 AM EST / 2023.01.30 0953 UTC
Wind: from the ESE (110 degrees) at 6 MPH (5 KT):0
Visibility: 8 mile(s):0
Sky conditions: overcast
Weather: light rain
Precipitation last hour: 0.07 inches
Temperature: 53.1 F (11.7 C)
Dew Point: 53.1 F (11.7 C)
Relative Humidity: 100%
Pressure (altimeter): 30.12 in. Hg (1019 hPa)
ob: KAUO 300953Z AUTO 11005KT 8SM -RA BKN004 BKN027 OVC095 12/12 A3012 RMK AO2 CIG 002V012 SLP017 P0007 T01170117
cycle: 10

Station Type Date Time Source
KAUO TAF UTC NOAA

Error!

Example: see airport list